Albert Lea, MN

10:35 AM CDT on May 24, 2015 (GMT -0500)
Albert Lea Municipal | | Change Station
CLOSE
Current Station
Airport
Location: Albert Lea,
Elevation: 1257 ft
Nearby Weather Stations

Elev 1257 ft 43.68 °N, 93.37 °W | Updated 23 minutes ago

Light Rain
Light Rain
59 °F
Feels Like 59 °F
N
17
Wind Variable Wind from SE
Gusts 23 mph

Today
High -- | Low -- °F
--% Chance of Precip.
Yesterday
High -- | Low -- °F
Precip. -- in
5:40 AM 8:40 PM
Waxing Crescent, 40% visible
Pressure 30.01 in
Visibility 10.0 miles
Clouds Scattered Clouds 1200 ft
Mostly Cloudy 1900 ft
Dew Point 57 °F
Humidity 94%
Rainfall 0.17 in
Snow Depth Not available.
UV 4 out of 12
Pollen 3.40 out of 12
Air Quality Not available.
Flu Activity Sporadic
METAR KAEL 241512Z AUTO 14015G20KT 10SM -RA SCT012 BKN019 15/14 A3001 RMK AO2 P0002

More Conditions Fewer Conditions

Pressure 30.01 in
Visibility 10.0 miles
Clouds Scattered Clouds 1200 ft
Mostly Cloudy 1900 ft
Dew Point 57 °F
Humidity 94%
Rainfall 0.17 in
Snow Depth Not available.
UV 4 out of 12
Pollen 3.40 out of 12
Air Quality Not available.
Flu Activity Sporadic
METAR KAEL 241512Z AUTO 14015G20KT 10SM -RA SCT012 BKN019 15/14 A3001 RMK AO2 P0002

More Conditions Fewer Conditions

10-Day Weather Forecast

Almanac

Astronomy

May. 24, 2015 Rise Set
Actual Time
Civil Twilight
Nautical Twilight
Astronomical Twilight
Moon
Length of Visible Light
Length of Day
Tomorrow will be .
, % of the Moon is Illuminated

Today's Extremes

State Highs State Lows

Community

WunderPhotos

Upload Photos

1,823,770 photos uploaded!

WunderBlogs® & News

Nearby

Air Quality

  Air Quality AQ Index Pollutant
Not available.

Snow Depth

Station Depth Elevation

Earthquake Activity

City Distance Mag. Time & Date
Minimum magnitude displayed is 2.5.

Coastal Water Temperatures

Place Temperature

Stations

Nearby Weather Stations

Station Location Temp. Windchill Dew Point Humidity Wind Precip. Elev Updated Type